Time;durP1;ratioP1;P1;durP2;ratioP2;P2;SDS_P1;SDS_P2;PMS_P1;PMS_P2;Temp;Humidity;BMP_temperature;BMP_pressure;BME280_temperature;BME280_humidity;BME280_pressure;Samples;Min_cycle;Max_cycle;Signal;HPM_P1;HPM_P2
2023/07/29 00:00:19;;;;;;;2.45;0.70;;;22.50;63.40;;;;;;5006464;28;20485;-49
2023/07/29 00:02:46;;;;;;;1.70;0.77;;;22.50;63.50;;;;;;5007344;28;20045;-50
2023/07/29 00:05:14;;;;;;;0.93;0.77;;;22.50;63.50;;;;;;5005728;28;20050;-45
2023/07/29 00:07:41;;;;;;;1.50;0.77;;;22.50;63.60;;;;;;5006005;28;20076;-45
2023/07/29 00:10:10;;;;;;;3.13;0.70;;;22.50;63.60;;;;;;5005672;28;20050;-48
2023/07/29 00:12:37;;;;;;;0.90;0.70;;;22.50;63.70;;;;;;5005535;28;20053;-49
2023/07/29 00:15:06;;;;;;;0.70;0.65;;;22.50;63.70;;;;;;5005709;28;20054;-48
2023/07/29 00:17:33;;;;;;;1.17;0.88;;;22.50;63.70;;;;;;5007511;28;20520;-46
2023/07/29 00:20:00;;;;;;;0.73;0.73;;;22.50;63.80;;;;;;5005599;28;20050;-51
2023/07/29 00:22:27;;;;;;;2.10;0.80;;;22.50;63.80;;;;;;5005368;28;20513;-49
2023/07/29 00:24:57;;;;;;;0.90;0.70;;;22.50;63.80;;;;;;5005228;28;20057;-54
2023/07/29 00:27:25;;;;;;;0.73;0.57;;;22.50;63.90;;;;;;5003403;28;20062;-47
2023/07/29 00:29:53;;;;;;;0.60;0.55;;;22.40;63.80;;;;;;5005802;28;20497;-50
2023/07/29 00:32:20;;;;;;;3.22;1.20;;;22.50;63.90;;;;;;5005439;28;20068;-48
2023/07/29 00:34:47;;;;;;;1.58;0.73;;;22.50;63.90;;;;;;5006431;28;20422;-46
2023/07/29 00:37:14;;;;;;;0.77;0.65;;;22.50;63.90;;;;;;5004110;28;20064;-48
2023/07/29 00:39:42;;;;;;;0.60;0.60;;;22.40;63.90;;;;;;5004756;28;20046;-52
2023/07/29 00:42:10;;;;;;;1.88;1.00;;;22.40;63.90;;;;;;5003976;28;20058;-53
2023/07/29 00:44:38;;;;;;;0.90;0.73;;;22.40;63.90;;;;;;5004988;28;20498;-51
2023/07/29 00:47:07;;;;;;;4.03;0.70;;;22.40;64.00;;;;;;5002387;28;20058;-47
2023/07/29 00:49:34;;;;;;;1.52;0.98;;;22.40;64.00;;;;;;5003381;28;20049;-47
2023/07/29 00:52:02;;;;;;;2.05;0.77;;;22.40;64.10;;;;;;5005155;28;20068;-44
2023/07/29 00:54:29;;;;;;;0.93;0.80;;;22.40;64.10;;;;;;5002965;28;20425;-42
2023/07/29 00:56:56;;;;;;;1.35;0.68;;;22.40;64.10;;;;;;5002042;28;20057;-45
2023/07/29 00:59:24;;;;;;;1.60;0.80;;;22.40;64.10;;;;;;5003421;28;20401;-45
2023/07/29 01:01:53;;;;;;;2.33;0.80;;;22.40;64.10;;;;;;5004079;28;20058;-46
2023/07/29 01:04:21;;;;;;;0.73;0.70;;;22.40;64.10;;;;;;5044997;22;20050;-94
2023/07/29 01:07:07;;;;;;;2.92;0.93;;;22.40;64.10;;;;;;5020112;28;20065;-95
2023/07/29 01:09:48;;;;;;;2.70;0.80;;;22.40;64.10;;;;;;5018950;28;20053;-94
2023/07/29 01:12:24;;;;;;;1.02;0.77;;;22.40;64.10;;;;;;5018093;28;20095;-95
2023/07/29 01:15:03;;;;;;;2.00;0.70;;;22.40;64.10;;;;;;5021661;28;20053;-95
2023/07/29 01:17:43;;;;;;;1.30;0.88;;;22.40;64.20;;;;;;5023193;28;20060;-95
2023/07/29 01:20:28;;;;;;;1.40;0.82;;;22.40;64.30;;;;;;5020999;28;20057;-95
2023/07/29 01:22:56;;;;;;;0.77;0.60;;;22.40;64.20;;;;;;5020284;28;20205;-95
2023/07/29 01:25:25;;;;;;;1.80;1.00;;;22.40;64.20;;;;;;5021065;28;20068;-95
2023/07/29 01:28:00;;;;;;;2.95;0.60;;;22.40;64.20;;;;;;5025172;28;20427;-95
2023/07/29 01:30:36;;;;;;;1.00;0.82;;;22.40;64.30;;;;;;5021998;28;20057;-95
2023/07/29 01:33:10;;;;;;;2.22;0.90;;;22.40;64.30;;;;;;5023978;28;20056;-95
2023/07/29 01:35:42;;;;;;;;;;;22.40;64.30;;;;;;5027807;28;20053;-95
2023/07/29 01:38:35;;;;;;;3.65;0.60;;;22.50;64.20;;;;;;5022782;28;20350;-95
2023/07/29 01:41:12;;;;;;;1.38;0.65;;;22.50;64.10;;;;;;5021523;28;20396;-96
2023/07/29 01:43:43;;;;;;;0.90;0.80;;;22.50;64.10;;;;;;5024713;28;20065;-96
2023/07/29 01:46:12;;;;;;;0.65;0.65;;;22.50;64.20;;;;;;5032117;28;20076;-96
2023/07/29 01:48:42;;;;;;;0.95;0.60;;;22.40;64.20;;;;;;5021621;28;20057;-95
2023/07/29 01:51:12;;;;;;;1.70;0.75;;;22.50;64.40;;;;;;5018050;28;20056;-95
2023/07/29 01:53:40;;;;;;;1.00;0.80;;;22.40;64.30;;;;;;5019724;28;20112;-95
2023/07/29 01:56:13;;;;;;;0.65;0.55;;;22.50;64.50;;;;;;5016612;28;20057;-94
2023/07/29 01:58:46;;;;;;;0.85;0.60;;;22.50;64.40;;;;;;5015304;28;20603;-95
2023/07/29 02:01:20;;;;;;;3.20;0.60;;;22.50;64.40;;;;;;5014477;28;20084;-94
2023/07/29 02:03:54;;;;;;;;;;;22.50;64.40;;;;;;5025679;28;20057;-96
2023/07/29 02:06:23;;;;;;;0.80;0.70;;;22.50;64.40;;;;;;5024510;28;19914;-96
2023/07/29 02:08:56;;;;;;;2.47;0.60;;;22.50;64.10;;;;;;5018454;28;20497;-96
2023/07/29 02:11:27;;;;;;;1.52;0.60;;;22.50;64.80;;;;;;5004490;28;20413;-96
2023/07/29 02:13:54;;;;;;;1.80;0.90;;;22.50;64.20;;;;;;5030858;23;20406;-53
2023/07/29 02:16:22;;;;;;;1.45;0.75;;;22.50;64.30;;;;;;4982907;28;20395;-52
2023/07/29 02:18:49;;;;;;;2.72;0.80;;;22.50;64.30;;;;;;4985159;28;20054;-49
2023/07/29 02:21:17;;;;;;;0.60;0.50;;;22.50;64.40;;;;;;4983087;28;20061;-51
2023/07/29 02:23:44;;;;;;;1.27;0.80;;;22.50;64.70;;;;;;4982494;28;20065;-50
2023/07/29 02:26:11;;;;;;;1.00;0.82;;;22.50;64.40;;;;;;4981975;28;20061;-49
2023/07/29 02:28:40;;;;;;;1.00;0.77;;;22.50;64.50;;;;;;4984321;28;20054;-53
2023/07/29 02:31:13;;;;;;;0.65;0.65;;;22.50;64.50;;;;;;4983299;28;20084;-49
2023/07/29 02:33:41;;;;;;;1.63;1.02;;;22.50;64.60;;;;;;4985845;28;20049;-49
2023/07/29 02:36:08;;;;;;;2.08;0.63;;;22.40;64.40;;;;;;4983928;28;20054;-51
2023/07/29 02:38:35;;;;;;;3.03;0.80;;;22.50;65.20;;;;;;4983252;28;20050;-48
2023/07/29 02:41:02;;;;;;;1.98;0.80;;;22.40;64.40;;;;;;4981959;28;20069;-53
2023/07/29 02:43:29;;;;;;;0.88;0.80;;;22.40;64.40;;;;;;4984190;28;20391;-49
2023/07/29 02:45:58;;;;;;;1.30;0.93;;;22.40;64.40;;;;;;4983591;28;20052;-53
2023/07/29 02:48:28;;;;;;;2.63;0.88;;;22.40;64.50;;;;;;4983350;28;20054;-48
2023/07/29 02:50:55;;;;;;;0.80;0.77;;;22.40;64.60;;;;;;4982806;28;20061;-50
2023/07/29 02:53:23;;;;;;;0.77;0.70;;;22.40;64.60;;;;;;4984128;28;20069;-49
2023/07/29 02:55:51;;;;;;;3.50;1.02;;;22.40;64.70;;;;;;4981644;28;20058;-50
2023/07/29 02:58:18;;;;;;;1.23;0.93;;;22.40;64.70;;;;;;4983573;28;20165;-48
2023/07/29 03:00:47;;;;;;;1.88;0.77;;;22.40;64.70;;;;;;4983399;28;20054;-50
2023/07/29 03:03:15;;;;;;;0.80;0.80;;;22.40;64.80;;;;;;4982986;28;20061;-52
2023/07/29 03:05:43;;;;;;;2.15;0.73;;;22.30;64.70;;;;;;4983402;28;20054;-47
2023/07/29 03:08:10;;;;;;;2.22;0.88;;;22.40;64.80;;;;;;4983497;28;20525;-47
2023/07/29 03:10:37;;;;;;;1.52;0.85;;;22.40;64.90;;;;;;4983413;28;20398;-47
2023/07/29 03:13:04;;;;;;;1.45;1.00;;;22.30;64.90;;;;;;4983328;28;20069;-51
2023/07/29 03:15:33;;;;;;;0.95;0.82;;;22.30;64.90;;;;;;4945153;28;20066;-52
2023/07/29 03:18:01;;;;;;;2.83;0.75;;;22.30;65.10;;;;;;4944472;28;20423;-49
2023/07/29 03:20:29;;;;;;;1.52;1.20;;;22.30;65.10;;;;;;4944276;28;20065;-49
2023/07/29 03:22:56;;;;;;;2.97;1.25;;;22.30;65.20;;;;;;4945128;28;20526;-46
2023/07/29 03:25:24;;;;;;;1.13;0.90;;;22.30;65.20;;;;;;4946565;28;20062;-49
2023/07/29 03:27:51;;;;;;;1.27;0.80;;;22.40;65.40;;;;;;4945171;28;20067;-53
2023/07/29 03:30:20;;;;;;;2.95;0.90;;;22.30;65.30;;;;;;4944442;28;20526;-50
2023/07/29 03:32:48;;;;;;;5.18;1.13;;;22.40;65.40;;;;;;4946248;28;20066;-53
2023/07/29 03:35:15;;;;;;;2.20;0.75;;;22.30;65.30;;;;;;4947814;28;20066;-51
2023/07/29 03:37:44;;;;;;;0.80;0.80;;;22.30;65.40;;;;;;4947965;28;20074;-52
2023/07/29 03:40:11;;;;;;;1.15;1.00;;;22.30;65.50;;;;;;4947929;28;20058;-55
2023/07/29 03:42:38;;;;;;;4.03;1.38;;;22.30;65.40;;;;;;4948759;28;20070;-53
2023/07/29 03:45:06;;;;;;;10.68;1.50;;;22.30;65.40;;;;;;4948144;28;20055;-49
2023/07/29 03:47:34;;;;;;;4.50;1.40;;;22.30;65.60;;;;;;4946844;28;20059;-52
2023/07/29 03:50:01;;;;;;;1.35;0.75;;;22.30;65.60;;;;;;4945695;28;20059;-51
2023/07/29 03:52:28;;;;;;;1.45;0.90;;;22.30;65.60;;;;;;4947318;28;20055;-51
2023/07/29 03:54:57;;;;;;;0.98;0.70;;;22.20;65.60;;;;;;4947350;28;20051;-51
2023/07/29 03:57:24;;;;;;;1.10;0.77;;;22.20;65.70;;;;;;4947799;28;20059;-51
2023/07/29 03:59:51;;;;;;;1.80;0.85;;;22.20;66.50;;;;;;4948945;28;20058;-50
2023/07/29 04:02:18;;;;;;;5.40;1.00;;;22.20;65.80;;;;;;4947624;28;20411;-49
2023/07/29 04:04:47;;;;;;;0.95;0.50;;;22.20;65.90;;;;;;4948462;28;20059;-46
2023/07/29 04:07:14;;;;;;;0.75;0.70;;;22.20;65.90;;;;;;4946767;28;20066;-48
2023/07/29 04:09:43;;;;;;;1.92;0.55;;;22.20;65.70;;;;;;4947953;28;20054;-47
2023/07/29 04:12:11;;;;;;;1.05;0.70;;;22.20;65.70;;;;;;4945577;28;20062;-49
2023/07/29 04:14:39;;;;;;;1.48;0.70;;;22.20;65.70;;;;;;4972549;28;20425;-51
2023/07/29 04:17:06;;;;;;;1.15;0.65;;;22.20;65.60;;;;;;4988064;28;20069;-50
2023/07/29 04:19:34;;;;;;;1.58;0.65;;;22.10;65.50;;;;;;4986179;28;20054;-49
2023/07/29 04:22:01;;;;;;;1.48;0.60;;;22.10;65.40;;;;;;4985087;28;20050;-49
2023/07/29 04:24:28;;;;;;;0.73;0.50;;;22.10;65.40;;;;;;4985649;28;20058;-50
2023/07/29 04:26:55;;;;;;;2.03;0.75;;;22.10;65.30;;;;;;4984322;28;20058;-49
2023/07/29 04:29:24;;;;;;;2.78;1.30;;;22.10;65.10;;;;;;4986378;28;20065;-48
2023/07/29 04:31:51;;;;;;;3.80;2.08;;;22.10;65.10;;;;;;4986162;28;20057;-49
2023/07/29 04:34:19;;;;;;;2.28;1.10;;;22.10;65.10;;;;;;4989470;28;20053;-51
2023/07/29 04:36:46;;;;;;;1.45;0.75;;;22.10;65.20;;;;;;4987473;28;20068;-47
2023/07/29 04:39:13;;;;;;;2.00;0.80;;;22.10;65.10;;;;;;4985560;28;20058;-46
2023/07/29 04:41:41;;;;;;;1.35;0.57;;;22.10;65.10;;;;;;4983877;28;20459;-51
2023/07/29 04:44:08;;;;;;;1.25;0.80;;;22.00;65.00;;;;;;4985438;28;20088;-53
2023/07/29 04:46:36;;;;;;;1.15;0.60;;;22.00;64.90;;;;;;4985952;28;20058;-50
2023/07/29 04:49:03;;;;;;;0.80;0.65;;;22.00;64.90;;;;;;4986179;28;20065;-50
2023/07/29 04:51:31;;;;;;;1.00;0.73;;;22.00;64.80;;;;;;4987005;28;20060;-53
2023/07/29 04:53:58;;;;;;;1.95;0.75;;;22.00;64.80;;;;;;4985260;28;20065;-53
2023/07/29 04:56:26;;;;;;;1.83;0.90;;;22.00;64.90;;;;;;4983974;28;20054;-51
2023/07/29 04:58:53;;;;;;;0.70;0.65;;;22.00;65.00;;;;;;4984884;28;20081;-50
2023/07/29 05:01:21;;;;;;;7.03;1.30;;;22.00;65.00;;;;;;4985212;28;20482;-49
2023/07/29 05:03:49;;;;;;;1.83;1.00;;;22.00;64.80;;;;;;4984700;28;20077;-50
2023/07/29 05:06:16;;;;;;;1.42;0.50;;;22.00;64.70;;;;;;4984470;28;20046;-53
2023/07/29 05:08:44;;;;;;;1.95;0.90;;;22.00;64.70;;;;;;4985808;28;20494;-53
2023/07/29 05:11:11;;;;;;;2.10;1.40;;;22.00;64.80;;;;;;4983373;28;20057;-49
2023/07/29 05:13:38;;;;;;;4.90;3.65;;;22.00;64.80;;;;;;4984723;28;20524;-53
2023/07/29 05:16:06;;;;;;;1.70;1.40;;;22.00;64.80;;;;;;4985529;28;20069;-50
2023/07/29 05:18:33;;;;;;;2.97;0.77;;;21.90;64.80;;;;;;4984033;28;20501;-48
2023/07/29 05:21:01;;;;;;;1.20;0.82;;;22.00;64.90;;;;;;4984523;28;20058;-50
2023/07/29 05:23:29;;;;;;;0.85;0.85;;;22.00;65.00;;;;;;4985093;28;20494;-50
2023/07/29 05:25:56;;;;;;;1.65;0.73;;;22.00;65.00;;;;;;4985030;28;20061;-48
2023/07/29 05:28:23;;;;;;;2.05;1.10;;;22.00;65.00;;;;;;4984186;28;20497;-52
2023/07/29 05:30:50;;;;;;;1.20;0.88;;;22.00;65.00;;;;;;4983850;28;20061;-48
2023/07/29 05:33:17;;;;;;;5.68;0.63;;;22.00;65.00;;;;;;4984448;28;20081;-51
2023/07/29 05:35:47;;;;;;;1.55;0.80;;;22.00;64.90;;;;;;4983576;28;20054;-53
2023/07/29 05:38:15;;;;;;;1.45;1.00;;;22.00;65.00;;;;;;4984076;28;20050;-48
2023/07/29 05:40:43;;;;;;;1.70;0.98;;;22.00;65.10;;;;;;4983826;28;20058;-51
2023/07/29 05:43:10;;;;;;;1.00;0.90;;;22.00;65.20;;;;;;4984433;28;21834;-49
2023/07/29 05:45:37;;;;;;;1.20;0.90;;;22.00;65.30;;;;;;4984532;28;20061;-48
2023/07/29 05:48:05;;;;;;;1.65;1.00;;;22.00;65.30;;;;;;4984453;28;20065;-44
2023/07/29 05:50:32;;;;;;;1.80;1.10;;;22.00;65.40;;;;;;4984779;28;20060;-48
2023/07/29 05:52:59;;;;;;;1.20;0.90;;;22.00;65.40;;;;;;4984068;28;20264;-45
2023/07/29 05:55:28;;;;;;;1.95;1.10;;;22.00;65.40;;;;;;4983069;28;20058;-46
2023/07/29 05:57:56;;;;;;;1.60;1.05;;;22.10;65.40;;;;;;4984098;28;20065;-50
2023/07/29 06:00:23;;;;;;;1.08;0.90;;;22.00;65.40;;;;;;4983826;28;20050;-47
2023/07/29 06:02:50;;;;;;;2.05;1.10;;;22.10;65.50;;;;;;4982770;28;20057;-46
2023/07/29 06:05:17;;;;;;;1.35;1.08;;;22.10;65.60;;;;;;4983649;28;20064;-47
2023/07/29 06:07:44;;;;;;;1.67;0.98;;;22.10;65.70;;;;;;4983153;28;20050;-47
2023/07/29 06:10:17;;;;;;;1.08;0.90;;;22.10;65.80;;;;;;4983912;28;20061;-51
2023/07/29 06:12:46;;;;;;;2.30;1.20;;;22.10;65.80;;;;;;4982991;28;20057;-49
2023/07/29 06:15:13;;;;;;;1.67;0.90;;;22.10;65.80;;;;;;4984833;28;20062;-45
2023/07/29 06:17:41;;;;;;;5.55;1.00;;;22.10;65.80;;;;;;4984695;28;20066;-44
2023/07/29 06:20:09;;;;;;;1.08;0.93;;;22.10;65.70;;;;;;4983761;28;20061;-48
2023/07/29 06:22:36;;;;;;;1.00;0.90;;;22.10;65.60;;;;;;4982831;28;20725;-47
2023/07/29 06:25:04;;;;;;;1.17;0.98;;;22.10;65.50;;;;;;4984088;28;20058;-47
2023/07/29 06:27:31;;;;;;;2.40;1.10;;;22.10;65.30;;;;;;4983769;28;20506;-44
2023/07/29 06:30:00;;;;;;;1.80;0.98;;;22.10;65.30;;;;;;4984561;28;20058;-47
2023/07/29 06:32:28;;;;;;;2.22;1.02;;;22.10;65.30;;;;;;4985112;28;20050;-47
2023/07/29 06:34:55;;;;;;;0.98;0.95;;;22.10;65.30;;;;;;4983976;28;20062;-47
2023/07/29 06:37:22;;;;;;;1.63;1.00;;;22.10;65.40;;;;;;4982562;28;20054;-47
2023/07/29 06:39:49;;;;;;;1.20;1.08;;;22.10;65.50;;;;;;4984147;28;20386;-48
2023/07/29 06:42:17;;;;;;;2.65;1.00;;;22.10;65.70;;;;;;4982640;28;20062;-49
2023/07/29 06:44:45;;;;;;;1.58;0.90;;;22.10;65.90;;;;;;4983737;28;20042;-47
2023/07/29 06:47:14;;;;;;;3.30;1.30;;;22.10;66.00;;;;;;4983640;28;20418;-48
2023/07/29 06:49:41;;;;;;;2.33;1.20;;;22.10;66.30;;;;;;4985711;28;20063;-48
2023/07/29 06:52:08;;;;;;;7.53;4.57;;;22.10;66.40;;;;;;4983178;28;20046;-47
2023/07/29 06:54:36;;;;;;;11.30;6.20;;;22.10;66.60;;;;;;4983976;28;20054;-45
2023/07/29 06:57:03;;;;;;;6.47;1.92;;;22.20;66.80;;;;;;4982019;28;20050;-45
2023/07/29 06:59:30;;;;;;;1.70;1.20;;;22.20;66.80;;;;;;4984665;28;20050;-52
2023/07/29 07:01:59;;;;;;;24.48;1.70;;;22.20;66.80;;;;;;4983732;28;21135;-47
2023/07/29 07:04:28;;;;;;;2.08;1.48;;;22.10;66.20;;;;;;4983610;28;20058;-52
2023/07/29 07:06:55;;;;;;;1.42;1.30;;;22.20;65.40;;;;;;4985622;28;20422;-51
2023/07/29 07:09:22;;;;;;;2.20;1.20;;;22.10;65.30;;;;;;4987813;28;20084;-47
2023/07/29 07:11:50;;;;;;;3.70;1.48;;;22.00;65.50;;;;;;4984760;28;20414;-49
2023/07/29 07:14:17;;;;;;;1.92;1.23;;;22.00;66.00;;;;;;4987210;28;20082;-50
2023/07/29 07:16:44;;;;;;;3.28;1.50;;;22.00;66.50;;;;;;4987648;28;20494;-49
2023/07/29 07:19:12;;;;;;;2.83;1.95;;;22.00;66.80;;;;;;4987188;28;20069;-54
2023/07/29 07:21:40;;;;;;;7.25;2.20;;;21.90;66.70;;;;;;4986453;28;20406;-51
2023/07/29 07:24:08;;;;;;;6.47;2.75;;;21.90;67.00;;;;;;4989195;28;20077;-49
2023/07/29 07:26:35;;;;;;;2.83;2.15;;;21.90;67.80;;;;;;4987059;28;20058;-52
2023/07/29 07:29:02;;;;;;;3.28;2.80;;;21.90;68.40;;;;;;4986921;28;20063;-53
2023/07/29 07:31:29;;;;;;;3.80;2.85;;;21.90;67.20;;;;;;4985827;28;20091;-49
2023/07/29 07:33:57;;;;;;;4.72;3.33;;;21.90;67.50;;;;;;4986059;28;20515;-50
2023/07/29 07:36:24;;;;;;;5.63;3.25;;;21.90;67.10;;;;;;4985924;28;20050;-47
2023/07/29 07:38:53;;;;;;;3.97;3.28;;;21.90;67.50;;;;;;4987125;28;20130;-51
2023/07/29 07:41:20;;;;;;;5.35;3.22;;;21.90;67.00;;;;;;4986566;28;20065;-50
2023/07/29 07:43:47;;;;;;;4.85;2.83;;;21.90;66.60;;;;;;4986415;28;20057;-49
2023/07/29 07:46:15;;;;;;;8.15;3.53;;;21.90;66.70;;;;;;4985250;28;20077;-50
2023/07/29 07:48:42;;;;;;;5.70;3.42;;;21.90;66.60;;;;;;4987049;28;20046;-51
2023/07/29 07:51:12;;;;;;;3.30;3.00;;;21.90;66.40;;;;;;4985594;28;20054;-50
2023/07/29 07:53:40;;;;;;;5.15;3.20;;;21.90;67.10;;;;;;4986215;28;20060;-51
2023/07/29 07:56:09;;;;;;;3.83;2.92;;;21.90;67.10;;;;;;4985317;28;20077;-52
2023/07/29 07:58:36;;;;;;;3.75;3.30;;;21.90;66.90;;;;;;4987480;28;20061;-53
2023/07/29 08:01:04;;;;;;;4.07;3.47;;;22.00;67.40;;;;;;4986084;28;20414;-52
2023/07/29 08:03:32;;;;;;;4.05;3.15;;;22.00;67.30;;;;;;4985301;28;20954;-50
2023/07/29 08:05:59;;;;;;;8.48;3.88;;;22.10;66.30;;;;;;4985913;28;20062;-52
2023/07/29 08:08:26;;;;;;;3.38;2.42;;;22.10;66.90;;;;;;4985698;28;20061;-57
2023/07/29 08:10:54;;;;;;;4.10;2.33;;;22.10;65.50;;;;;;4984889;28;20066;-54
2023/07/29 08:13:23;;;;;;;3.53;2.33;;;22.20;65.40;;;;;;4986233;28;20410;-57
2023/07/29 08:15:51;;;;;;;3.72;1.63;;;22.20;65.80;;;;;;4989194;28;20062;-60
2023/07/29 08:18:19;;;;;;;2.17;1.55;;;22.20;63.30;;;;;;4985055;28;20061;-54
2023/07/29 08:20:54;;;;;;;2.92;1.50;;;22.30;62.40;;;;;;4985072;28;20057;-58
2023/07/29 08:23:21;;;;;;;3.60;1.50;;;22.30;61.00;;;;;;4985412;28;20050;-63
2023/07/29 08:25:54;;;;;;;1.30;1.20;;;22.30;61.00;;;;;;4984610;28;20061;-59
2023/07/29 08:28:22;;;;;;;2.28;1.60;;;22.40;60.10;;;;;;4986616;28;20426;-62
2023/07/29 08:30:50;;;;;;;4.80;1.42;;;22.40;60.50;;;;;;4987269;28;20493;-56
2023/07/29 08:33:17;;;;;;;2.25;1.50;;;22.40;60.80;;;;;;4985004;28;20050;-61
2023/07/29 08:35:44;;;;;;;3.33;1.33;;;22.40;60.60;;;;;;4984779;28;20494;-60
2023/07/29 08:38:11;;;;;;;2.60;1.58;;;22.50;59.70;;;;;;4985860;28;20054;-57
2023/07/29 08:40:42;;;;;;;3.45;2.10;;;22.40;60.10;;;;;;4984735;28;20516;-56
2023/07/29 08:43:11;;;;;;;2.55;1.63;;;22.50;60.90;;;;;;4985711;28;21535;-62
2023/07/29 08:45:41;;;;;;;3.83;1.80;;;22.50;61.00;;;;;;4985223;28;20058;-56
2023/07/29 08:48:10;;;;;;;2.10;1.65;;;22.60;60.60;;;;;;4986896;28;20058;-56
2023/07/29 08:50:38;;;;;;;5.88;1.85;;;22.60;60.90;;;;;;4986120;28;20518;-52
2023/07/29 08:53:06;;;;;;;4.75;2.10;;;22.70;60.60;;;;;;4984868;28;20046;-57
2023/07/29 08:55:33;;;;;;;3.40;2.10;;;22.70;60.90;;;;;;4984649;28;20065;-55
2023/07/29 08:58:02;;;;;;;2.50;1.63;;;22.80;60.80;;;;;;4984757;28;20134;-56
2023/07/29 09:00:29;;;;;;;3.97;1.75;;;22.80;60.80;;;;;;4985038;28;20056;-56
2023/07/29 09:03:02;;;;;;;2.03;1.83;;;22.90;60.30;;;;;;4984946;28;20046;-56
2023/07/29 09:05:29;;;;;;;3.25;2.10;;;22.90;59.70;;;;;;4987143;28;20513;-59
2023/07/29 09:07:57;;;;;;;2.17;1.70;;;22.90;59.00;;;;;;4986116;28;20058;-58
2023/07/29 09:10:27;;;;;;;2.08;1.60;;;22.90;58.60;;;;;;4984440;28;20069;-56
2023/07/29 09:12:54;;;;;;;3.63;1.98;;;22.90;59.10;;;;;;4984660;28;20062;-57
2023/07/29 09:15:29;;;;;;;3.70;1.88;;;22.90;59.50;;;;;;4982788;28;20054;-56
2023/07/29 09:17:58;;;;;;;5.80;2.10;;;23.00;58.80;;;;;;4985170;28;20425;-52
2023/07/29 09:20:26;;;;;;;4.03;1.98;;;22.90;59.40;;;;;;4988531;28;20056;-55
2023/07/29 09:22:55;;;;;;;3.03;1.60;;;23.00;59.60;;;;;;4985614;28;20053;-49
2023/07/29 09:25:26;;;;;;;2.72;2.10;;;23.00;59.70;;;;;;4984761;28;20074;-53
2023/07/29 09:27:54;;;;;;;3.47;2.10;;;23.10;59.70;;;;;;4981277;28;20050;-49
2023/07/29 09:30:21;;;;;;;3.67;2.00;;;23.10;59.80;;;;;;4980478;28;20509;-51
2023/07/29 09:32:55;;;;;;;3.35;1.55;;;23.10;59.60;;;;;;4985920;28;20066;-48
2023/07/29 09:35:24;;;;;;;2.10;1.60;;;23.10;59.00;;;;;;4984713;28;20931;-51
2023/07/29 09:37:52;;;;;;;2.10;1.70;;;23.20;58.80;;;;;;4985146;28;20058;-49
2023/07/29 09:40:19;;;;;;;1.70;1.40;;;23.20;58.80;;;;;;4983315;28;20505;-50
2023/07/29 09:42:51;;;;;;;3.30;1.73;;;23.20;58.80;;;;;;4983386;28;20564;-48
2023/07/29 09:45:22;;;;;;;5.10;1.92;;;23.20;59.10;;;;;;4984472;28;20065;-49
2023/07/29 09:47:50;;;;;;;2.55;1.75;;;23.20;59.10;;;;;;4984426;28;20525;-50
2023/07/29 09:50:18;;;;;;;2.78;1.60;;;23.20;58.70;;;;;;4982464;28;20046;-49
2023/07/29 09:52:48;;;;;;;1.67;1.40;;;23.20;58.70;;;;;;4984369;28;20054;-56
2023/07/29 09:55:18;;;;;;;3.33;1.70;;;23.20;58.80;;;;;;4984607;28;20050;-52
2023/07/29 09:57:46;;;;;;;2.28;1.40;;;23.10;59.10;;;;;;4982737;28;20054;-50
2023/07/29 10:00:14;;;;;;;2.53;1.58;;;23.20;59.00;;;;;;4981580;28;20074;-48
2023/07/29 10:02:42;;;;;;;2.20;1.50;;;23.20;59.10;;;;;;4984390;28;20061;-51
2023/07/29 10:05:11;;;;;;;2.42;1.80;;;23.20;59.30;;;;;;4983288;28;20699;-51
2023/07/29 10:07:39;;;;;;;3.45;1.60;;;23.20;59.30;;;;;;4983905;28;20065;-53
2023/07/29 10:10:09;;;;;;;2.80;1.90;;;23.20;59.30;;;;;;4983457;28;21441;-50
2023/07/29 10:12:36;;;;;;;2.35;1.75;;;23.20;59.20;;;;;;4980284;28;20054;-51
2023/07/29 10:15:06;;;;;;;2.67;1.73;;;23.20;59.10;;;;;;4981593;28;20533;-48
2023/07/29 10:17:36;;;;;;;2.08;1.60;;;23.20;59.10;;;;;;4984666;28;20054;-50
2023/07/29 10:20:05;;;;;;;1.80;1.60;;;23.20;59.20;;;;;;4981948;28;20061;-50
2023/07/29 10:22:37;;;;;;;4.53;1.63;;;23.30;59.20;;;;;;4983351;28;20051;-48
2023/07/29 10:25:08;;;;;;;1.45;1.33;;;23.30;59.30;;;;;;4985658;28;20054;-52
2023/07/29 10:27:42;;;;;;;4.20;1.60;;;23.30;59.60;;;;;;4981006;28;20054;-54
2023/07/29 10:30:11;;;;;;;2.10;1.63;;;23.30;59.50;;;;;;4983570;28;20058;-52
2023/07/29 10:32:39;;;;;;;1.83;1.65;;;23.40;59.40;;;;;;4982283;28;20054;-55
2023/07/29 10:35:07;;;;;;;1.55;1.45;;;23.40;59.40;;;;;;4982706;28;20223;-55
2023/07/29 10:37:35;;;;;;;2.00;1.67;;;23.50;59.10;;;;;;4982885;28;20061;-55
2023/07/29 10:40:09;;;;;;;2.13;1.65;;;23.50;59.00;;;;;;4979624;28;20054;-51
2023/07/29 10:42:36;;;;;;;3.15;1.60;;;23.60;58.80;;;;;;4983774;28;20051;-51
2023/07/29 10:45:20;;;;;;;2.60;1.65;;;23.60;58.50;;;;;;4988022;28;20058;-55
2023/07/29 10:47:48;;;;;;;8.03;1.80;;;23.70;57.70;;;;;;4987511;28;20088;-53
2023/07/29 10:50:20;;;;;;;4.63;1.70;;;23.70;57.90;;;;;;4986126;28;20406;-54
2023/07/29 10:52:51;;;;;;;2.15;1.75;;;23.70;57.60;;;;;;4986475;28;20058;-52
2023/07/29 10:55:29;;;;;;;2.17;1.85;;;23.70;56.70;;;;;;4985930;28;20050;-56
2023/07/29 10:58:08;;;;;;;3.15;2.00;;;23.60;57.00;;;;;;4986231;28;20058;-59
2023/07/29 11:00:35;;;;;;;3.63;1.67;;;23.60;57.10;;;;;;4985042;28;20461;-56
2023/07/29 11:03:05;;;;;;;2.15;1.60;;;23.50;56.80;;;;;;4986751;28;20410;-57
2023/07/29 11:05:47;;;;;;;2.50;1.40;;;23.50;57.00;;;;;;4989508;28;20051;-56
2023/07/29 11:08:28;;;;;;;2.20;1.70;;;23.40;57.00;;;;;;4985950;28;20410;-61
2023/07/29 11:11:08;;;;;;;7.90;1.70;;;23.40;57.10;;;;;;4985312;28;20065;-60
2023/07/29 11:13:36;;;;;;;3.05;1.88;;;23.30;57.20;;;;;;4986791;28;20521;-55
2023/07/29 11:16:05;;;;;;;3.03;1.67;;;23.20;57.60;;;;;;4988202;28;20053;-59
2023/07/29 11:18:35;;;;;;;2.28;1.95;;;23.20;58.10;;;;;;4987007;28;20059;-58
2023/07/29 11:21:03;;;;;;;4.07;2.08;;;23.10;58.30;;;;;;4987644;28;20058;-58
2023/07/29 11:23:32;;;;;;;4.50;2.20;;;23.10;58.50;;;;;;4986539;28;20046;-57
2023/07/29 11:26:00;;;;;;;3.70;2.08;;;23.00;58.90;;;;;;4985208;28;20065;-58
2023/07/29 11:28:29;;;;;;;5.13;2.05;;;22.90;59.20;;;;;;4985831;28;20402;-57
2023/07/29 11:30:57;;;;;;;2.67;1.90;;;23.00;59.60;;;;;;4987684;28;20095;-57
2023/07/29 11:33:27;;;;;;;2.60;1.90;;;22.90;60.00;;;;;;4986836;28;20081;-56
2023/07/29 11:35:55;;;;;;;3.10;2.00;;;22.90;60.50;;;;;;4986327;28;20057;-56
2023/07/29 11:38:23;;;;;;;3.25;1.90;;;22.90;60.70;;;;;;4989024;28;20487;-44
2023/07/29 11:41:03;;;;;;;2.42;1.70;;;23.00;60.50;;;;;;4985483;28;20074;-48
2023/07/29 11:43:36;;;;;;;2.42;1.80;;;23.00;60.10;;;;;;4985765;28;20058;-46
2023/07/29 11:46:03;;;;;;;1.90;1.52;;;23.00;59.90;;;;;;4986136;28;20055;-45
2023/07/29 11:48:33;;;;;;;1.88;1.52;;;23.10;59.90;;;;;;4988689;28;20069;-51
2023/07/29 11:51:01;;;;;;;2.90;1.70;;;23.10;59.80;;;;;;4987539;28;20054;-51
2023/07/29 11:53:30;;;;;;;2.05;1.77;;;23.10;59.90;;;;;;4985908;28;20050;-51
2023/07/29 11:55:58;;;;;;;4.38;1.73;;;23.10;59.90;;;;;;4984509;28;20050;-49
2023/07/29 11:58:25;;;;;;;1.75;1.60;;;23.10;59.70;;;;;;4985799;28;20081;-50
2023/07/29 12:00:54;;;;;;;1.48;1.38;;;23.10;59.40;;;;;;4986509;28;20054;-46
2023/07/29 12:03:21;;;;;;;1.73;1.58;;;23.20;59.50;;;;;;4986904;28;20418;-47
2023/07/29 12:05:49;;;;;;;2.85;1.63;;;23.20;59.60;;;;;;4985198;28;20062;-51
2023/07/29 12:08:16;;;;;;;3.30;1.60;;;23.20;59.50;;;;;;4986895;28;20506;-50
2023/07/29 12:10:44;;;;;;;2.55;1.60;;;23.30;59.30;;;;;;4985704;28;20426;-50
2023/07/29 12:13:11;;;;;;;2.58;1.60;;;23.30;59.40;;;;;;4987084;28;20209;-50
2023/07/29 12:15:40;;;;;;;2.33;1.45;;;23.30;59.60;;;;;;4985367;28;20482;-54
2023/07/29 12:18:10;;;;;;;1.98;1.50;;;23.40;59.80;;;;;;4986973;28;20058;-49
2023/07/29 12:20:38;;;;;;;1.60;1.50;;;23.50;59.70;;;;;;4983940;28;20053;-53
2023/07/29 12:23:06;;;;;;;1.65;1.35;;;23.50;59.30;;;;;;4985974;28;20058;-50
2023/07/29 12:25:33;;;;;;;1.63;1.35;;;23.60;59.50;;;;;;4984853;28;20050;-54
2023/07/29 12:28:04;;;;;;;1.85;1.42;;;23.60;59.10;;;;;;4985068;28;20495;-51
2023/07/29 12:30:32;;;;;;;1.95;1.50;;;23.70;58.90;;;;;;4986798;28;20406;-53
2023/07/29 12:32:59;;;;;;;2.17;1.45;;;23.70;58.70;;;;;;4985942;28;20065;-50
2023/07/29 12:35:37;;;;;;;1.85;1.50;;;23.70;58.30;;;;;;4985095;28;20504;-50
2023/07/29 12:38:04;;;;;;;5.70;1.70;;;23.70;58.10;;;;;;4986538;28;20418;-47
2023/07/29 12:40:32;;;;;;;3.00;1.40;;;23.70;58.00;;;;;;4986059;28;20062;-51
2023/07/29 12:42:59;;;;;;;1.40;1.30;;;23.70;57.40;;;;;;4984095;28;20505;-54
2023/07/29 12:45:28;;;;;;;2.33;1.70;;;23.70;57.10;;;;;;4984759;28;20050;-49
2023/07/29 12:47:56;;;;;;;2.47;1.50;;;23.70;56.90;;;;;;4987533;28;20058;-46
2023/07/29 12:50:23;;;;;;;2.17;1.50;;;23.70;57.40;;;;;;4985269;28;20072;-56
2023/07/29 12:52:52;;;;;;;2.47;1.70;;;23.70;57.20;;;;;;4985331;28;20058;-58
2023/07/29 12:55:19;;;;;;;1.88;1.42;;;23.70;56.70;;;;;;4984794;28;20490;-55